Hueysville, Kentucky
Current Conditions -  °F | °C
As of 8:15 PM on Tuesday 27 Jan 2015 (Local Time) from KPBX Reporting Station
Clear Clear  
Wind Chill: 17°   Ceiling: Unl
Heat Index: 23°   Visibility: 10mi
Dew Point: 14°   Wind: 5mph
Humidity: 67%   Direction: 340°NNW
Pressure: 30.1"   Gusts: NA
Location:  37.5°N, 82.83°W
Report Text: KPBX 280115Z AUTO 34004KT 10SM CLR M05/M10 A3010 RMK AO2 T10481101
Loading
Personal Weather Stations






























Interactive Weather Map New forecast layout! Learn more

10-Day Weather Forecast

Advertisements
Track Severe Weather on mobile